createdAt,value
2018-07-12T00:00:05.710Z,16.28
2018-07-12T00:01:05.684Z,16.26
2018-07-12T00:02:05.620Z,16.16
2018-07-12T00:03:05.572Z,16.16
2018-07-12T00:04:05.520Z,16.17
2018-07-12T00:05:05.477Z,16.26
2018-07-12T00:06:05.449Z,16.20
2018-07-12T00:07:05.374Z,16.21
2018-07-12T00:08:05.330Z,16.17
2018-07-12T00:09:05.291Z,16.20
2018-07-12T00:10:05.233Z,16.10
2018-07-12T00:11:05.209Z,16.09
2018-07-12T00:12:05.142Z,16.17
2018-07-12T00:13:05.092Z,16.15
2018-07-12T00:14:05.050Z,16.25
2018-07-12T00:15:05.002Z,16.15
2018-07-12T00:16:04.977Z,16.20
2018-07-12T00:17:04.898Z,16.17
2018-07-12T00:18:04.850Z,16.28
2018-07-12T00:19:04.807Z,16.26
2018-07-12T00:20:04.769Z,16.26
2018-07-12T00:21:04.710Z,16.34
2018-07-12T00:22:04.684Z,16.26
2018-07-12T00:23:04.616Z,16.31
2018-07-12T00:24:04.570Z,16.35
2018-07-12T00:25:04.521Z,16.38
2018-07-12T00:26:04.475Z,16.41
2018-07-12T00:27:04.445Z,16.34
2018-07-12T00:28:04.391Z,16.36
2018-07-12T00:29:04.349Z,16.39
2018-07-12T00:30:04.305Z,16.39
2018-07-12T00:31:04.241Z,16.35
2018-07-12T00:32:04.226Z,16.49
2018-07-12T00:33:04.142Z,16.44
2018-07-12T00:34:04.097Z,16.46
2018-07-12T00:35:04.054Z,16.41
2018-07-12T00:36:04.003Z,16.44
2018-07-12T00:37:03.972Z,16.46
2018-07-12T00:38:03.909Z,16.41
2018-07-12T00:39:03.876Z,16.46
2018-07-12T00:40:03.806Z,16.46
2018-07-12T00:41:03.761Z,16.50
2018-07-12T00:42:03.733Z,16.46
2018-07-12T00:43:03.669Z,16.57
2018-07-12T00:44:03.619Z,16.54
2018-07-12T00:45:03.581Z,16.54
2018-07-12T00:46:03.522Z,16.56
2018-07-12T00:47:03.497Z,16.56
2018-07-12T00:48:03.434Z,16.50
2018-07-12T00:49:03.387Z,16.53
2018-07-12T00:50:03.337Z,16.53
2018-07-12T00:51:03.289Z,16.56
2018-07-12T00:52:03.260Z,16.53
2018-07-12T00:53:03.194Z,16.47
2018-07-12T00:54:03.146Z,16.47
2018-07-12T00:55:03.097Z,16.49
2018-07-12T00:56:03.049Z,16.47
2018-07-12T00:57:03.031Z,16.49
2018-07-12T00:58:02.953Z,16.47
2018-07-12T00:59:02.907Z,16.51
2018-07-12T01:00:02.860Z,16.49
2018-07-12T01:01:02.808Z,16.49
2018-07-12T01:02:02.786Z,16.46
2018-07-12T01:03:02.719Z,16.43
2018-07-12T01:04:02.668Z,16.47
2018-07-12T01:05:02.629Z,16.51
2018-07-12T01:06:02.577Z,16.49
2018-07-12T01:07:02.553Z,16.49
2018-07-12T01:08:02.479Z,16.44
2018-07-12T01:09:02.434Z,16.44
2018-07-12T01:10:02.388Z,16.43
2018-07-12T01:11:02.338Z,16.49
2018-07-12T01:12:02.315Z,16.36
2018-07-12T01:13:02.242Z,16.35
2018-07-12T01:14:02.195Z,16.35
2018-07-12T01:15:02.149Z,16.39
2018-07-12T01:16:02.100Z,16.29
2018-07-12T01:17:02.079Z,16.29
2018-07-12T01:18:02.001Z,16.28
2018-07-12T01:19:01.957Z,16.29
2018-07-12T01:20:01.912Z,16.34
2018-07-12T01:21:01.861Z,16.34
2018-07-12T01:22:01.839Z,16.34
2018-07-12T01:23:01.765Z,16.10
2018-07-12T01:24:01.714Z,16.32
2018-07-12T01:25:01.687Z,16.25
2018-07-12T01:26:01.623Z,16.28
2018-07-12T01:27:01.600Z,16.28
2018-07-12T01:28:01.525Z,16.35
2018-07-12T01:29:01.479Z,16.21
2018-07-12T01:30:01.437Z,16.13
2018-07-12T01:31:01.386Z,16.17
2018-07-12T01:32:01.377Z,16.16
2018-07-12T01:33:01.288Z,16.16
2018-07-12T01:34:01.251Z,16.24
2018-07-12T01:35:01.198Z,16.17
2018-07-12T01:36:01.161Z,16.20
2018-07-12T01:37:01.120Z,16.21
2018-07-12T01:38:01.050Z,16.20
2018-07-12T01:39:01.011Z,16.21
2018-07-12T01:40:00.956Z,16.12
2018-07-12T01:41:00.908Z,16.13
2018-07-12T01:42:00.881Z,16.09
2018-07-12T01:43:00.813Z,16.05
2018-07-12T01:44:00.765Z,16.02
2018-07-12T01:45:00.723Z,16.00
2018-07-12T01:46:00.668Z,16.05
2018-07-12T01:47:00.648Z,16.06
2018-07-12T01:48:00.591Z,15.90
2018-07-12T01:49:00.527Z,15.87
2018-07-12T01:50:00.477Z,15.90
2018-07-12T01:51:00.431Z,15.85
2018-07-12T01:52:00.403Z,15.82
2018-07-12T01:53:00.341Z,15.82
2018-07-12T01:54:00.286Z,15.79
2018-07-12T01:55:00.239Z,15.83
2018-07-12T01:56:00.192Z,15.79
2018-07-12T01:57:00.181Z,15.82
2018-07-12T01:58:00.094Z,15.82
2018-07-12T01:59:00.051Z,15.77
2018-07-12T02:00:00.001Z,15.85
2018-07-12T02:00:59.950Z,15.72
2018-07-12T02:01:59.907Z,15.76
2018-07-12T02:02:59.898Z,15.70
2018-07-12T02:03:59.807Z,15.65
2018-07-12T02:04:59.768Z,15.65
2018-07-12T02:05:59.715Z,15.68
2018-07-12T02:06:59.669Z,15.61
2018-07-12T02:07:59.640Z,15.68
2018-07-12T02:08:59.571Z,15.60
2018-07-12T02:09:59.521Z,15.61
2018-07-12T02:10:59.474Z,15.57
2018-07-12T02:11:59.424Z,15.62
2018-07-12T02:12:59.404Z,15.61
2018-07-12T02:13:59.331Z,15.60
2018-07-12T02:14:59.281Z,15.57
2018-07-12T02:15:59.238Z,15.52
2018-07-12T02:16:59.253Z,15.50
2018-07-12T02:17:59.169Z,15.50
2018-07-12T02:18:59.090Z,15.52
2018-07-12T02:19:59.044Z,15.50
2018-07-12T02:20:59.001Z,15.51
2018-07-12T02:21:58.947Z,15.52
2018-07-12T02:22:58.921Z,15.54
2018-07-12T02:23:58.858Z,15.54
2018-07-12T02:24:58.808Z,15.51
2018-07-12T02:25:58.757Z,15.48
2018-07-12T02:26:58.721Z,15.58
2018-07-12T02:27:58.686Z,15.54
2018-07-12T02:28:58.617Z,15.50
2018-07-12T02:29:58.565Z,15.43
2018-07-12T02:30:58.534Z,15.42
2018-07-12T02:31:58.470Z,15.42
2018-07-12T02:32:58.444Z,15.39
2018-07-12T02:33:58.375Z,15.30
2018-07-12T02:34:58.334Z,15.40
2018-07-12T02:35:58.284Z,15.39
2018-07-12T02:36:58.252Z,15.37
2018-07-12T02:37:58.206Z,15.39
2018-07-12T02:38:58.134Z,15.35
2018-07-12T02:39:58.096Z,15.37
2018-07-12T02:40:58.043Z,15.37
2018-07-12T02:41:57.986Z,15.40
2018-07-12T02:42:57.968Z,15.39
2018-07-12T02:43:57.903Z,15.30
2018-07-12T02:44:57.846Z,15.32
2018-07-12T02:45:57.800Z,15.30
2018-07-12T02:46:57.760Z,15.21
2018-07-12T02:47:57.734Z,15.17
2018-07-12T02:48:57.657Z,15.21
2018-07-12T02:49:57.607Z,15.17
2018-07-12T02:50:57.562Z,15.14
2018-07-12T02:51:57.520Z,15.02
2018-07-12T02:52:57.516Z,15.00
2018-07-12T02:53:57.414Z,15.03
2018-07-12T02:54:57.381Z,15.14
2018-07-12T02:55:57.323Z,15.04
2018-07-12T02:56:57.275Z,14.96
2018-07-12T02:57:57.246Z,15.12
2018-07-12T02:58:57.199Z,14.97
2018-07-12T02:59:57.126Z,15.14
2018-07-12T03:00:57.079Z,15.12
2018-07-12T03:01:57.031Z,14.97
2018-07-12T03:02:57.015Z,15.02
2018-07-12T03:03:56.937Z,15.03
2018-07-12T03:04:56.883Z,14.99
2018-07-12T03:05:56.842Z,14.99
2018-07-12T03:06:56.792Z,14.99
2018-07-12T03:07:56.765Z,14.99
2018-07-12T03:08:56.694Z,15.03
2018-07-12T03:09:56.648Z,15.03
2018-07-12T03:10:56.597Z,15.03
2018-07-12T03:11:56.555Z,14.97
2018-07-12T03:12:56.530Z,15.03
2018-07-12T03:13:56.450Z,14.96
2018-07-12T03:14:56.405Z,14.95
2018-07-12T03:15:56.359Z,14.91
2018-07-12T03:16:56.307Z,14.91
2018-07-12T03:17:56.283Z,14.87
2018-07-12T03:18:56.214Z,14.79
2018-07-12T03:19:56.163Z,14.87
2018-07-12T03:20:56.114Z,14.79
2018-07-12T03:21:56.067Z,14.82
2018-07-12T03:22:56.044Z,14.84
2018-07-12T03:23:55.971Z,14.82
2018-07-12T03:24:55.923Z,14.85
2018-07-12T03:25:55.876Z,14.77
2018-07-12T03:26:55.824Z,14.78
2018-07-12T03:27:55.805Z,14.84
2018-07-12T03:28:55.732Z,14.73
2018-07-12T03:29:55.685Z,14.85
2018-07-12T03:30:55.631Z,14.78
2018-07-12T03:31:55.598Z,14.73
2018-07-12T03:32:55.562Z,14.68
2018-07-12T03:33:55.490Z,14.73
2018-07-12T03:34:55.450Z,14.73
2018-07-12T03:35:55.391Z,14.77
2018-07-12T03:36:55.345Z,14.70
2018-07-12T03:37:55.321Z,14.85
2018-07-12T03:38:55.250Z,14.73
2018-07-12T03:39:55.202Z,14.79
2018-07-12T03:40:55.150Z,14.84
2018-07-12T03:41:55.107Z,14.78
2018-07-12T03:42:55.081Z,14.81
2018-07-12T03:43:55.015Z,14.78
2018-07-12T03:44:54.960Z,14.82
2018-07-12T03:45:54.913Z,14.78
2018-07-12T03:46:54.862Z,14.78
2018-07-12T03:47:54.835Z,14.85
2018-07-12T03:48:54.766Z,14.81
2018-07-12T03:49:54.721Z,14.87
2018-07-12T03:50:54.669Z,14.84
2018-07-12T03:51:54.622Z,14.79
2018-07-12T03:52:54.595Z,14.73
2018-07-12T03:53:54.539Z,14.69
2018-07-12T03:54:54.479Z,14.68
2018-07-12T03:55:54.427Z,14.68
2018-07-12T03:56:54.381Z,14.69
2018-07-12T03:57:54.359Z,14.65
2018-07-12T03:58:54.281Z,14.62
2018-07-12T03:59:54.248Z,14.68
2018-07-12T04:00:54.190Z,14.65
2018-07-12T04:01:54.139Z,14.77
2018-07-12T04:02:54.117Z,14.77
2018-07-12T04:03:54.065Z,14.73
2018-07-12T04:04:53.997Z,14.74
2018-07-12T04:05:53.946Z,14.81
2018-07-12T04:06:53.900Z,14.78
2018-07-12T04:07:53.873Z,14.79
2018-07-12T04:08:53.804Z,14.87
2018-07-12T04:09:53.753Z,14.85
2018-07-12T04:10:53.747Z,14.93
2018-07-12T04:11:53.654Z,14.84
2018-07-12T04:12:53.633Z,14.87
2018-07-12T04:13:53.569Z,14.85
2018-07-12T04:14:53.509Z,14.84
2018-07-12T04:15:53.465Z,14.82
2018-07-12T04:16:53.416Z,14.91
2018-07-12T04:17:53.387Z,14.85
2018-07-12T04:18:53.317Z,14.93
2018-07-12T04:19:53.271Z,14.93
2018-07-12T04:20:53.223Z,14.97
2018-07-12T04:21:53.179Z,14.97
2018-07-12T04:22:53.147Z,15.03
2018-07-12T04:23:53.077Z,15.11
2018-07-12T04:24:53.026Z,15.09
2018-07-12T04:25:52.980Z,15.14
2018-07-12T04:26:52.928Z,15.03
2018-07-12T04:27:52.915Z,15.04
2018-07-12T04:28:52.840Z,15.12
2018-07-12T04:29:52.787Z,15.18
2018-07-12T04:30:52.762Z,15.14
2018-07-12T04:31:52.690Z,15.24
2018-07-12T04:32:52.687Z,15.21
2018-07-12T04:33:52.601Z,15.17
2018-07-12T04:34:52.547Z,15.24
2018-07-12T04:35:52.499Z,15.30
2018-07-12T04:36:52.451Z,15.25
2018-07-12T04:37:52.483Z,15.27
2018-07-12T04:38:52.378Z,15.28
2018-07-12T04:39:52.305Z,15.28
2018-07-12T04:40:52.258Z,15.32
2018-07-12T04:41:52.208Z,15.32
2018-07-12T04:42:52.160Z,15.35
2018-07-12T04:43:52.141Z,15.30
2018-07-12T04:44:52.084Z,15.30
2018-07-12T04:45:52.021Z,15.33
2018-07-12T04:46:51.979Z,15.30
2018-07-12T04:47:51.926Z,15.37
2018-07-12T04:48:51.896Z,15.37
2018-07-12T04:49:51.830Z,15.33
2018-07-12T04:50:51.779Z,15.37
2018-07-12T04:51:51.731Z,15.39
2018-07-12T04:52:51.681Z,15.40
2018-07-12T04:53:51.660Z,15.40
2018-07-12T04:54:51.582Z,15.44
2018-07-12T04:55:51.537Z,15.48
2018-07-12T04:56:51.486Z,15.44
2018-07-12T04:57:51.456Z,15.50
2018-07-12T04:58:51.421Z,15.52
2018-07-12T04:59:51.350Z,15.54
2018-07-12T05:00:51.300Z,15.55
2018-07-12T05:01:51.253Z,15.57
2018-07-12T05:02:51.206Z,15.57
2018-07-12T05:03:51.179Z,15.48
2018-07-12T05:04:51.114Z,15.52
2018-07-12T05:05:51.061Z,15.52
2018-07-12T05:06:51.010Z,15.48
2018-07-12T05:07:50.969Z,15.50
2018-07-12T05:08:50.939Z,15.40
2018-07-12T05:09:50.865Z,15.43
2018-07-12T05:10:50.851Z,15.30
2018-07-12T05:11:50.771Z,15.37
2018-07-12T05:12:50.725Z,15.42
2018-07-12T05:13:50.710Z,15.46
2018-07-12T05:14:50.631Z,15.44
2018-07-12T05:15:50.580Z,15.44
2018-07-12T05:16:50.532Z,15.44
2018-07-12T05:17:50.487Z,15.51
2018-07-12T05:18:50.458Z,15.55
2018-07-12T05:19:52.111Z,15.51
2018-07-12T05:20:51.598Z,15.54
2018-07-12T05:21:50.305Z,15.58
2018-07-12T05:22:50.242Z,15.61
2018-07-12T05:23:50.219Z,15.61
2018-07-12T05:24:50.148Z,15.69
2018-07-12T05:25:50.099Z,15.55
2018-07-12T05:26:50.051Z,15.60
2018-07-12T05:27:50.015Z,15.60
2018-07-12T05:28:49.977Z,15.73
2018-07-12T05:29:49.907Z,15.64
2018-07-12T05:30:49.910Z,15.69
2018-07-12T05:31:49.813Z,15.57
2018-07-12T05:32:49.765Z,15.60
2018-07-12T05:33:49.740Z,15.58
2018-07-12T05:34:49.669Z,15.60
2018-07-12T05:35:49.619Z,15.60
2018-07-12T05:36:49.574Z,15.61
2018-07-12T05:37:49.522Z,15.68
2018-07-12T05:38:49.500Z,15.65
2018-07-12T05:39:49.428Z,15.73
2018-07-12T05:40:49.383Z,15.64
2018-07-12T05:41:49.334Z,15.61
2018-07-12T05:42:49.287Z,15.58
2018-07-12T05:43:49.262Z,15.68
2018-07-12T05:44:49.186Z,15.61
2018-07-12T05:45:49.145Z,15.60
2018-07-12T05:46:49.128Z,15.68
2018-07-12T05:47:49.050Z,15.65
2018-07-12T05:48:49.027Z,15.76
2018-07-12T05:49:48.952Z,15.72
2018-07-12T05:50:48.906Z,15.76
2018-07-12T05:51:48.865Z,15.75
2018-07-12T05:52:48.808Z,15.73
2018-07-12T05:53:48.785Z,15.83
2018-07-12T05:54:48.740Z,15.77
2018-07-12T05:55:48.678Z,15.87
2018-07-12T05:56:48.615Z,15.85
2018-07-12T05:57:48.574Z,15.92
2018-07-12T05:58:48.547Z,15.94
2018-07-12T05:59:48.476Z,15.91
2018-07-12T06:00:48.427Z,15.94
2018-07-12T06:01:48.381Z,15.97
2018-07-12T06:02:48.388Z,15.94
2018-07-12T06:03:48.311Z,16.06
2018-07-12T06:04:48.238Z,15.95
2018-07-12T06:05:48.186Z,15.97
2018-07-12T06:06:48.147Z,16.01
2018-07-12T06:07:48.091Z,16.01
2018-07-12T06:08:48.070Z,16.09
2018-07-12T06:09:48.002Z,16.08
2018-07-12T06:10:47.951Z,16.13
2018-07-12T06:11:47.905Z,16.06
2018-07-12T06:12:47.862Z,16.09
2018-07-12T06:13:47.841Z,16.08
2018-07-12T06:14:47.759Z,16.26
2018-07-12T06:15:47.712Z,16.20
2018-07-12T06:16:47.661Z,16.28
2018-07-12T06:17:47.615Z,16.28
2018-07-12T06:18:47.659Z,16.31
2018-07-12T06:19:47.529Z,16.28
2018-07-12T06:20:47.471Z,16.28
2018-07-12T06:21:47.427Z,16.16
2018-07-12T06:22:47.379Z,16.26
2018-07-12T06:23:47.353Z,16.35
2018-07-12T06:24:47.302Z,16.38
2018-07-12T06:25:47.236Z,16.35
2018-07-12T06:26:47.188Z,16.36
2018-07-12T06:27:47.144Z,16.44
2018-07-12T06:28:47.117Z,16.46
2018-07-12T06:29:47.049Z,16.56
2018-07-12T06:30:47.011Z,16.59
2018-07-12T06:31:46.962Z,16.53
2018-07-12T06:32:46.904Z,16.50
2018-07-12T06:33:46.855Z,16.57
2018-07-12T06:34:46.833Z,16.57
2018-07-12T06:35:46.762Z,16.64
2018-07-12T06:36:46.715Z,16.62
2018-07-12T06:37:46.670Z,16.69
2018-07-12T06:38:46.899Z,16.74
2018-07-12T06:39:46.631Z,16.82
2018-07-12T06:40:46.519Z,16.74
2018-07-12T06:41:46.474Z,16.83
2018-07-12T06:42:46.467Z,16.91
2018-07-12T06:43:46.383Z,16.90
2018-07-12T06:44:46.355Z,16.99
2018-07-12T06:45:46.292Z,17.04
2018-07-12T06:46:46.240Z,17.11
2018-07-12T06:47:46.193Z,17.08
2018-07-12T06:48:46.148Z,17.17
2018-07-12T06:49:46.129Z,17.16
2018-07-12T06:50:46.052Z,17.26
2018-07-12T06:51:46.007Z,17.37
2018-07-12T06:52:45.997Z,17.41
2018-07-12T06:53:45.916Z,17.31
2018-07-12T06:54:45.886Z,17.48
2018-07-12T06:55:45.821Z,17.44
2018-07-12T06:56:45.771Z,17.56
2018-07-12T06:57:45.728Z,17.65
2018-07-12T06:58:45.682Z,17.65
2018-07-12T06:59:45.655Z,17.67
2018-07-12T07:00:45.635Z,17.78
2018-07-12T07:01:45.535Z,17.86
2018-07-12T07:02:45.490Z,17.86
2018-07-12T07:03:45.446Z,17.91
2018-07-12T07:04:45.414Z,18.04
2018-07-12T07:05:45.347Z,18.16
2018-07-12T07:06:45.301Z,18.13
2018-07-12T07:07:45.260Z,18.15
2018-07-12T07:08:45.208Z,18.16
2018-07-12T07:09:45.190Z,18.04
2018-07-12T07:10:45.141Z,18.00
2018-07-12T07:11:45.073Z,18.05
2018-07-12T07:12:45.041Z,17.95
2018-07-12T07:13:44.976Z,17.98
2018-07-12T07:14:45.021Z,18.00
2018-07-12T07:15:44.885Z,18.04
2018-07-12T07:16:44.834Z,17.97
2018-07-12T07:17:44.792Z,17.97
2018-07-12T07:18:44.756Z,18.04
2018-07-12T07:19:44.720Z,18.03
2018-07-12T07:20:44.647Z,18.00
2018-07-12T07:21:44.607Z,17.97
2018-07-12T07:22:44.559Z,18.01
2018-07-12T07:23:44.523Z,17.97
2018-07-12T07:24:44.487Z,17.93
2018-07-12T07:25:44.414Z,17.93
2018-07-12T07:26:44.372Z,17.97
2018-07-12T07:27:44.323Z,18.03
2018-07-12T07:28:44.276Z,18.04
2018-07-12T07:29:44.260Z,18.04
2018-07-12T07:30:44.187Z,18.03
2018-07-12T07:31:44.138Z,18.09
2018-07-12T07:32:44.092Z,18.16
2018-07-12T07:33:44.043Z,18.09
2018-07-12T07:34:44.038Z,18.20
2018-07-12T07:35:44.041Z,18.30
2018-07-12T07:36:43.907Z,18.34
2018-07-12T07:37:43.857Z,18.28
2018-07-12T07:38:43.815Z,18.34
2018-07-12T07:39:43.790Z,18.31
2018-07-12T07:40:43.720Z,18.31
2018-07-12T07:41:43.688Z,18.35
2018-07-12T07:42:43.633Z,18.35
2018-07-12T07:43:43.583Z,18.43
2018-07-12T07:44:43.561Z,18.56
2018-07-12T07:45:43.494Z,18.66
2018-07-12T07:46:43.441Z,18.85
2018-07-12T07:47:43.398Z,18.98
2018-07-12T07:48:43.356Z,18.83
2018-07-12T07:49:43.325Z,18.85
2018-07-12T07:50:43.258Z,18.88
2018-07-12T07:51:43.212Z,18.96
2018-07-12T07:52:43.165Z,19.22
2018-07-12T07:53:43.116Z,19.23
2018-07-12T07:54:43.093Z,19.22
2018-07-12T07:55:43.031Z,19.24
2018-07-12T07:56:42.983Z,19.31
2018-07-12T07:57:42.934Z,19.49
2018-07-12T07:58:42.884Z,19.59
2018-07-12T07:59:42.868Z,19.56
2018-07-12T08:00:42.800Z,19.60
2018-07-12T08:01:42.760Z,19.63
2018-07-12T08:02:42.706Z,19.73
2018-07-12T08:03:42.667Z,19.96
2018-07-12T08:04:42.617Z,19.97
2018-07-12T08:05:42.596Z,20.00
2018-07-12T08:06:42.523Z,20.03
2018-07-12T08:07:42.483Z,19.88
2018-07-12T08:08:42.435Z,19.86
2018-07-12T08:09:42.388Z,19.82
2018-07-12T08:10:42.370Z,19.88
2018-07-12T08:11:42.301Z,19.89
2018-07-12T08:12:42.254Z,19.97
2018-07-12T08:13:42.209Z,20.00
2018-07-12T08:14:42.174Z,20.09
2018-07-12T08:15:42.140Z,20.04
2018-07-12T08:16:42.068Z,20.18
2018-07-12T08:17:42.024Z,20.17
2018-07-12T08:18:41.988Z,20.25
2018-07-12T08:19:41.933Z,20.40
2018-07-12T08:20:41.913Z,20.36
2018-07-12T08:21:41.842Z,20.37
2018-07-12T08:22:41.797Z,20.29
2018-07-12T08:23:41.751Z,20.26
2018-07-12T08:24:41.707Z,20.19
2018-07-12T08:25:41.687Z,20.29
2018-07-12T08:26:41.615Z,20.37
2018-07-12T08:27:41.572Z,20.47
2018-07-12T08:28:41.527Z,20.57
2018-07-12T08:29:41.484Z,20.66
2018-07-12T08:30:41.459Z,20.67
2018-07-12T08:31:41.390Z,20.65
2018-07-12T08:32:41.351Z,20.75
2018-07-12T08:33:41.304Z,20.90
2018-07-12T08:34:41.253Z,20.97
2018-07-12T08:35:41.230Z,21.17
2018-07-12T08:36:41.167Z,21.18
2018-07-12T08:37:41.118Z,21.24
2018-07-12T08:38:41.076Z,21.21
2018-07-12T08:39:41.031Z,21.15
2018-07-12T08:40:41.051Z,21.33
2018-07-12T08:41:40.941Z,21.29
2018-07-12T08:42:40.919Z,21.15
2018-07-12T08:43:40.875Z,21.22
2018-07-12T08:44:40.849Z,21.37
2018-07-12T08:45:40.878Z,21.40
2018-07-12T08:46:40.766Z,21.42
2018-07-12T08:47:40.673Z,21.40
2018-07-12T08:48:40.727Z,21.27
2018-07-12T08:49:41.039Z,21.29
2018-07-12T08:50:41.706Z,21.29
2018-07-12T08:51:40.522Z,21.12
2018-07-12T08:52:40.620Z,20.99
2018-07-12T08:53:40.490Z,21.02
2018-07-12T08:54:40.544Z,20.81
2018-07-12T08:55:40.341Z,20.78
2018-07-12T08:56:40.277Z,20.65
2018-07-12T08:57:40.232Z,20.66
2018-07-12T08:58:40.183Z,20.67
2018-07-12T08:59:43.023Z,20.77
2018-07-12T09:00:41.191Z,20.75
2018-07-12T09:01:40.056Z,20.93
2018-07-12T09:02:40.041Z,21.02
2018-07-12T09:03:39.957Z,21.24
2018-07-12T09:04:39.916Z,21.26
2018-07-12T09:05:39.898Z,21.32
2018-07-12T09:06:39.825Z,21.40
2018-07-12T09:07:39.780Z,21.37
2018-07-12T09:08:39.742Z,21.59
2018-07-12T09:09:39.691Z,21.58
2018-07-12T09:10:39.666Z,21.42
2018-07-12T09:11:39.608Z,21.36
2018-07-12T09:12:39.559Z,21.29
2018-07-12T09:13:39.511Z,21.24
2018-07-12T09:14:39.463Z,21.33
2018-07-12T09:15:39.461Z,21.27
2018-07-12T09:16:39.379Z,21.42
2018-07-12T09:17:39.336Z,21.43
2018-07-12T09:18:39.291Z,21.37
2018-07-12T09:19:39.248Z,21.43
2018-07-12T09:20:39.229Z,21.50
2018-07-12T09:21:39.211Z,21.66
2018-07-12T09:22:39.110Z,21.65
2018-07-12T09:23:39.071Z,21.76
2018-07-12T09:24:39.028Z,21.77
2018-07-12T09:25:39.010Z,21.77
2018-07-12T09:26:38.937Z,21.67
2018-07-12T09:27:38.893Z,21.72
2018-07-12T09:28:38.848Z,21.82
2018-07-12T09:29:38.802Z,22.10
2018-07-12T09:30:38.802Z,22.07
2018-07-12T09:31:38.715Z,22.04
2018-07-12T09:32:38.670Z,22.03
2018-07-12T09:33:38.625Z,22.10
2018-07-12T09:34:38.583Z,22.05
2018-07-12T09:35:38.539Z,21.98
2018-07-12T09:36:38.514Z,21.82
2018-07-12T09:37:38.449Z,21.96
2018-07-12T09:38:38.405Z,21.79
2018-07-12T09:39:38.368Z,21.88
2018-07-12T09:40:38.322Z,21.74
2018-07-12T09:41:38.300Z,21.69
2018-07-12T09:42:38.230Z,21.70
2018-07-12T09:43:38.190Z,21.73
2018-07-12T09:44:38.141Z,21.74
2018-07-12T09:45:38.099Z,21.74
2018-07-12T09:46:38.077Z,21.72
2018-07-12T09:47:38.093Z,21.61
2018-07-12T09:48:37.967Z,21.63
2018-07-12T09:49:37.921Z,21.52
2018-07-12T09:50:37.881Z,21.43
2018-07-12T09:51:37.863Z,21.52
2018-07-12T09:52:37.789Z,21.47
2018-07-12T09:53:37.744Z,21.47
2018-07-12T09:54:37.698Z,21.52
2018-07-12T09:55:37.681Z,21.59
2018-07-12T09:56:37.639Z,21.55
2018-07-12T09:57:37.568Z,21.50
2018-07-12T09:58:37.522Z,21.66
2018-07-12T09:59:37.481Z,21.58
2018-07-12T10:00:37.440Z,21.65
2018-07-12T10:01:37.438Z,21.67
2018-07-12T10:02:37.345Z,21.72
2018-07-12T10:03:37.300Z,21.73
2018-07-12T10:04:37.259Z,21.69
2018-07-12T10:05:37.212Z,21.59
2018-07-12T10:06:37.189Z,21.58
2018-07-12T10:07:37.134Z,21.67
2018-07-12T10:08:37.080Z,21.63
2018-07-12T10:09:37.035Z,21.69
2018-07-12T10:10:37.027Z,21.77
2018-07-12T10:11:36.971Z,21.88
2018-07-12T10:12:36.908Z,22.07
2018-07-12T10:13:36.856Z,22.01
2018-07-12T10:14:36.815Z,22.03
2018-07-12T10:15:36.770Z,22.10
2018-07-12T10:16:36.751Z,22.07
2018-07-12T10:17:36.685Z,22.15
2018-07-12T10:18:36.638Z,22.36
2018-07-12T10:19:36.594Z,22.38
2018-07-12T10:20:36.550Z,22.30
2018-07-12T10:21:36.533Z,22.25
2018-07-12T10:22:36.461Z,22.17
2018-07-12T10:23:36.417Z,22.14
2018-07-12T10:24:36.379Z,22.10
2018-07-12T10:25:36.330Z,22.08
2018-07-12T10:26:36.307Z,22.05
2018-07-12T10:27:36.251Z,22.04
2018-07-12T10:28:36.202Z,22.08
2018-07-12T10:29:36.155Z,22.10
2018-07-12T10:30:36.115Z,22.20
2018-07-12T10:31:36.093Z,22.30
2018-07-12T10:32:36.026Z,22.40
2018-07-12T10:33:35.986Z,22.26
2018-07-12T10:34:35.937Z,22.22
2018-07-12T10:35:35.895Z,22.14
2018-07-12T10:36:35.849Z,22.15
2018-07-12T10:37:35.831Z,22.15
2018-07-12T10:38:35.761Z,22.17
2018-07-12T10:39:35.717Z,22.01
2018-07-12T10:40:35.673Z,21.98
2018-07-12T10:41:35.632Z,22.01
2018-07-12T10:42:35.608Z,21.85
2018-07-12T10:43:35.541Z,21.79
2018-07-12T10:44:35.563Z,21.77
2018-07-12T10:45:35.463Z,21.90
2018-07-12T10:46:35.409Z,22.01
2018-07-12T10:47:35.392Z,22.14
2018-07-12T10:48:35.320Z,22.28
2018-07-12T10:49:35.277Z,22.30
2018-07-12T10:50:35.234Z,22.40
2018-07-12T10:51:35.196Z,22.47
2018-07-12T10:52:35.173Z,22.60
2018-07-12T10:53:35.104Z,22.68
2018-07-12T10:54:35.055Z,22.78
2018-07-12T10:55:35.016Z,22.90
2018-07-12T10:56:34.979Z,22.98
2018-07-12T10:57:34.962Z,23.03
2018-07-12T10:58:34.894Z,23.18
2018-07-12T10:59:34.856Z,23.36
2018-07-12T11:00:34.798Z,23.28
2018-07-12T11:01:34.752Z,23.38
2018-07-12T11:02:34.731Z,23.24
2018-07-12T11:03:34.670Z,23.22
2018-07-12T11:04:34.663Z,23.10
2018-07-12T11:05:34.579Z,22.98
2018-07-12T11:06:34.538Z,22.88
2018-07-12T11:07:34.515Z,22.85
2018-07-12T11:08:34.447Z,22.88
2018-07-12T11:09:34.401Z,22.98
2018-07-12T11:10:34.405Z,22.99
2018-07-12T11:11:34.320Z,23.09
2018-07-12T11:12:34.297Z,23.18
2018-07-12T11:13:34.232Z,23.14
2018-07-12T11:14:34.188Z,23.25
2018-07-12T11:15:34.145Z,23.33
2018-07-12T11:16:34.104Z,23.44
2018-07-12T11:17:34.081Z,23.47
2018-07-12T11:18:34.020Z,23.48
2018-07-12T11:19:33.972Z,23.41
2018-07-12T11:20:33.933Z,23.28
2018-07-12T11:21:33.895Z,23.27
2018-07-12T11:22:33.874Z,23.21
2018-07-12T11:23:33.793Z,22.96
2018-07-12T11:24:33.755Z,22.99
2018-07-12T11:25:33.717Z,22.91
2018-07-12T11:26:33.668Z,22.88
2018-07-12T11:27:33.648Z,23.05
2018-07-12T11:28:33.584Z,23.14
2018-07-12T11:29:33.542Z,23.20
2018-07-12T11:30:33.494Z,23.31
2018-07-12T11:31:33.467Z,23.38
2018-07-12T11:32:33.438Z,23.53
2018-07-12T11:33:33.366Z,23.56
2018-07-12T11:34:33.321Z,23.65
2018-07-12T11:35:33.287Z,23.55
2018-07-12T11:36:33.235Z,23.62
2018-07-12T11:37:33.220Z,23.62
2018-07-12T11:38:33.148Z,23.73
2018-07-12T11:39:33.108Z,23.68
2018-07-12T11:40:33.071Z,23.62
2018-07-12T11:41:33.025Z,23.62
2018-07-12T11:42:33.000Z,23.58
2018-07-12T11:43:32.936Z,23.51
2018-07-12T11:44:32.892Z,23.48
2018-07-12T11:45:32.850Z,23.37
2018-07-12T11:46:32.808Z,23.17
2018-07-12T11:47:32.786Z,23.07
2018-07-12T11:48:32.717Z,23.00
2018-07-12T11:49:32.676Z,22.87
2018-07-12T11:50:32.631Z,22.87
2018-07-12T11:51:32.589Z,22.88
2018-07-12T11:52:32.624Z,22.80
2018-07-12T11:53:32.497Z,22.88
2018-07-12T11:54:32.461Z,22.91
2018-07-12T11:55:32.417Z,22.87
2018-07-12T11:56:32.371Z,22.91
2018-07-12T11:57:32.326Z,22.90
2018-07-12T11:58:32.306Z,22.99
2018-07-12T11:59:32.237Z,22.98
2018-07-12T12:00:32.197Z,23.03
2018-07-12T12:01:32.158Z,23.13
2018-07-12T12:02:32.118Z,23.37
2018-07-12T12:03:32.091Z,23.56
2018-07-12T12:04:32.022Z,23.59
2018-07-12T12:05:31.975Z,23.68
2018-07-12T12:06:31.935Z,23.68
2018-07-12T12:07:31.888Z,23.70
2018-07-12T12:08:31.876Z,23.71
2018-07-12T12:09:31.805Z,23.52
2018-07-12T12:10:31.767Z,23.52
2018-07-12T12:11:31.716Z,23.56
2018-07-12T12:12:31.675Z,23.48
2018-07-12T12:13:31.655Z,23.52
2018-07-12T12:14:31.583Z,23.48
2018-07-12T12:15:31.542Z,23.46
2018-07-12T12:16:31.497Z,23.40
2018-07-12T12:17:31.459Z,23.38
2018-07-12T12:18:31.443Z,23.38
2018-07-12T12:19:31.438Z,23.27
2018-07-12T12:20:31.324Z,23.28
2018-07-12T12:21:31.285Z,23.22
2018-07-12T12:22:31.236Z,22.91
2018-07-12T12:23:31.216Z,22.83
2018-07-12T12:24:31.147Z,22.90
2018-07-12T12:25:31.109Z,22.81
2018-07-12T12:26:31.061Z,22.66
2018-07-12T12:27:31.039Z,22.62
2018-07-12T12:28:31.001Z,22.56
2018-07-12T12:29:30.937Z,22.62
2018-07-12T12:30:30.893Z,22.48
2018-07-12T12:31:30.850Z,22.47
2018-07-12T12:32:30.798Z,22.56
2018-07-12T12:33:30.796Z,22.62
2018-07-12T12:34:30.715Z,22.58
2018-07-12T12:35:30.672Z,22.43
2018-07-12T12:36:30.623Z,22.58
2018-07-12T12:37:30.580Z,22.53
2018-07-12T12:38:30.555Z,22.59
2018-07-12T12:39:30.492Z,22.51
2018-07-12T12:40:30.450Z,22.66
2018-07-12T12:41:30.403Z,22.63
2018-07-12T12:42:30.363Z,22.69
2018-07-12T12:43:30.351Z,22.58
2018-07-12T12:44:30.273Z,22.58
2018-07-12T12:45:30.229Z,22.58
2018-07-12T12:46:30.186Z,22.58
2018-07-12T12:47:30.140Z,22.54
2018-07-12T12:48:30.122Z,22.48
2018-07-12T12:49:30.054Z,22.56
2018-07-12T12:50:30.013Z,22.56
2018-07-12T12:51:29.972Z,22.56